Time;durP1;ratioP1;P1;durP2;ratioP2;P2;SDS_P1;SDS_P2;PMS_P1;PMS_P2;Temp;Humidity;BMP_temperature;BMP_pressure;BME280_temperature;BME280_humidity;BME280_pressure;Samples;Min_cycle;Max_cycle;Signal;HPM_P1;HPM_P2
2022/11/09 00:01:14;;;;;;;;;;;12.60;99.90;;;;;;5071913;28;19925;-69
2022/11/09 00:03:39;;;;;;;;;;;12.30;99.90;;;;;;5062754;28;20405;-69
2022/11/09 00:06:05;;;;;;;;;;;12.60;99.90;;;;;;5033347;28;19964;-70
2022/11/09 00:08:30;;;;;;;;;;;12.20;99.90;;;;;;5051951;28;20329;-69
2022/11/09 00:11:01;;;;;;;;;;;12.30;99.90;;;;;;5052024;28;19921;-69
2022/11/09 00:13:26;;;;;;;;;;;12.10;99.90;;;;;;5034110;28;19928;-70
2022/11/09 00:15:52;;;;;;;;;;;12.20;99.90;;;;;;5049807;28;20398;-69
2022/11/09 00:18:17;;;;;;;;;;;12.40;99.90;;;;;;5053849;28;19979;-70
2022/11/09 00:20:42;;;;;;;;;;;12.20;99.90;;;;;;5068368;28;19924;-70
2022/11/09 00:23:08;;;;;;;;;;;12.40;99.90;;;;;;5101394;22;21006;-73
2022/11/09 00:25:33;;;;;;;;;;;12.30;99.90;;;;;;5115841;28;19919;-73
2022/11/09 00:27:59;;;;;;;;;;;12.30;99.90;;;;;;5116521;28;20373;-73
2022/11/09 00:30:26;;;;;;;;;;;12.40;99.90;;;;;;5098075;28;20010;-73
2022/11/09 00:32:51;;;;;;;;;;;12.40;99.90;;;;;;5097372;28;20468;-73
2022/11/09 00:35:17;;;;;;;;;;;12.30;99.90;;;;;;5076985;28;19999;-73
2022/11/09 00:37:42;;;;;;;;;;;12.40;99.90;;;;;;5076764;28;20033;-73
2022/11/09 00:40:08;;;;;;;;;;;12.20;99.90;;;;;;5077776;28;20007;-73
2022/11/09 00:42:34;;;;;;;;;;;12.40;99.90;;;;;;5077442;28;20390;-73
2022/11/09 00:44:59;;;;;;;;;;;12.30;99.90;;;;;;5094806;28;19920;-73
2022/11/09 00:47:25;;;;;;;;;;;12.30;99.90;;;;;;5077517;28;19926;-73
2022/11/09 00:49:50;;;;;;;;;;;12.40;99.90;;;;;;5077845;28;19928;-71
2022/11/09 00:52:16;;;;;;;;;;;12.20;99.90;;;;;;5075588;28;19928;-71
2022/11/09 00:54:41;;;;;;;;;;;12.50;99.90;;;;;;5076701;28;19951;-71
2022/11/09 00:57:07;;;;;;;;;;;12.50;99.90;;;;;;5076971;28;19927;-71
2022/11/09 00:59:32;;;;;;;;;;;12.40;99.90;;;;;;5077558;28;20362;-71
2022/11/09 01:01:57;;;;;;;;;;;12.60;99.90;;;;;;5095500;28;19949;-71
2022/11/09 01:04:23;;;;;;;;;;;12.80;99.90;;;;;;5076415;28;19927;-71
2022/11/09 01:06:48;;;;;;;;;;;12.70;99.90;;;;;;5077050;28;19934;-71
2022/11/09 01:09:14;;;;;;;;;;;12.60;99.90;;;;;;5070340;28;20367;-71
2022/11/09 01:11:40;;;;;;;;;;;12.70;99.90;;;;;;5057210;28;19920;-72
2022/11/09 01:14:05;;;;;;;;;;;12.90;99.90;;;;;;5056091;28;19921;-71
2022/11/09 01:16:31;;;;;;;;;;;12.80;99.90;;;;;;5057102;28;20382;-71
2022/11/09 01:18:57;;;;;;;;;;;12.70;99.90;;;;;;5056895;28;19921;-71
2022/11/09 01:21:23;;;;;;;;;;;12.60;99.90;;;;;;5074520;28;19964;-71
2022/11/09 01:23:49;;;;;;;;;;;13.00;99.90;;;;;;5074192;28;19920;-71
2022/11/09 01:26:15;;;;;;;;;;;13.00;99.90;;;;;;5067511;28;19920;-71
2022/11/09 01:28:40;;;;;;;;;;;12.90;99.90;;;;;;5062405;28;19924;-71
2022/11/09 01:31:09;;;;;;;;;;;13.00;99.90;;;;;;5056603;28;19985;-71
2022/11/09 01:33:34;;;;;;;;;;;13.10;99.90;;;;;;5056860;28;20524;-71
2022/11/09 01:36:00;;;;;;;;;;;12.80;99.90;;;;;;5054282;28;20104;-71
2022/11/09 01:38:26;;;;;;;;;;;12.90;99.90;;;;;;5056501;28;19917;-71
2022/11/09 01:40:51;;;;;;;;;;;12.90;99.90;;;;;;5074450;28;19946;-72
2022/11/09 01:43:19;;;;;;;;;;;12.60;99.90;;;;;;5074833;28;19920;-71
2022/11/09 01:45:47;;;;;;;;;;;12.60;99.90;;;;;;5075613;28;19920;-71
2022/11/09 01:48:18;;;;;;;;;;;12.60;99.90;;;;;;5063755;28;20007;-71
2022/11/09 01:50:52;;;;;;;;;;;12.60;99.90;;;;;;5056264;28;19966;-71
2022/11/09 01:53:19;;;;;;;;;;;12.80;99.90;;;;;;5056409;28;20317;-71
2022/11/09 01:55:46;;;;;;;;;;;12.70;99.90;;;;;;5073599;28;19921;-71
2022/11/09 01:58:14;;;;;;;;;;;13.80;99.90;;;;;;5084652;28;19920;-71
2022/11/09 02:00:42;;;;;;;;;;;12.70;99.90;;;;;;5075691;28;19974;-71
2022/11/09 02:03:10;;;;;;;;;;;12.50;99.90;;;;;;5075910;28;21223;-71
2022/11/09 02:05:37;;;;;;;;;;;12.30;99.90;;;;;;5075523;28;19931;-71
2022/11/09 02:08:04;;;;;;;;;;;12.70;99.90;;;;;;5075902;28;19947;-71
2022/11/09 02:10:37;;;;;;;;;;;12.50;99.90;;;;;;5059458;28;19920;-72
2022/11/09 02:13:04;;;;;;;;;;;12.30;99.90;;;;;;5075871;28;19924;-72
2022/11/09 02:15:29;;;;;;;;;;;12.50;99.90;;;;;;5073289;28;19927;-71
2022/11/09 02:17:55;;;;;;;;;;;12.40;99.90;;;;;;5055793;28;20298;-71
2022/11/09 02:20:21;;;;;;;;;;;;;;;;;;5038866;28;19935;-71
2022/11/09 02:22:47;;;;;;;;;;;12.60;99.90;;;;;;5073543;28;20291;-71
2022/11/09 02:25:13;;;;;;;;;;;12.40;99.90;;;;;;5054940;28;19921;-71
2022/11/09 02:27:40;;;;;;;;;;;13.30;99.90;;;;;;5073568;28;19921;-71
2022/11/09 02:30:06;;;;;;;;;;;13.50;99.90;;;;;;5056442;28;19921;-71
2022/11/09 02:32:31;;;;;;;;;;;12.50;99.90;;;;;;5073589;28;20310;-71
2022/11/09 02:34:57;;;;;;;;;;;12.10;99.90;;;;;;5054461;28;19920;-71
2022/11/09 02:37:25;;;;;;;;;;;12.60;99.90;;;;;;5073379;28;19921;-71
2022/11/09 02:39:52;;;;;;;;;;;12.20;99.90;;;;;;5038615;28;19924;-71
2022/11/09 02:42:17;;;;;;;;;;;12.70;99.90;;;;;;5055359;28;20336;-71
2022/11/09 02:44:45;;;;;;;;;;;12.30;99.90;;;;;;5054364;28;19920;-72
2022/11/09 02:47:10;;;;;;;;;;;12.30;99.90;;;;;;5074737;28;19931;-72
2022/11/09 02:49:36;;;;;;;;;;;12.00;99.90;;;;;;5056650;28;19939;-72
2022/11/09 02:52:01;;;;;;;;;;;12.30;99.90;;;;;;5075022;28;19943;-71
2022/11/09 02:54:27;;;;;;;;;;;12.10;99.90;;;;;;5074195;28;19920;-72
2022/11/09 02:56:52;;;;;;;;;;;12.10;99.90;;;;;;5074942;28;19920;-72
2022/11/09 02:59:18;;;;;;;;;;;12.10;99.90;;;;;;5051438;28;19920;-71
2022/11/09 03:01:43;;;;;;;;;;;12.40;99.90;;;;;;5054830;28;19924;-71
2022/11/09 03:04:09;;;;;;;;;;;12.20;99.90;;;;;;5037675;28;19985;-71
2022/11/09 03:06:35;;;;;;;;;;;12.40;99.90;;;;;;5072800;28;19920;-71
2022/11/09 03:09:01;;;;;;;;;;;12.10;99.90;;;;;;5054875;28;19925;-71
2022/11/09 03:11:27;;;;;;;;;;;12.40;99.90;;;;;;5055053;28;20401;-72
2022/11/09 03:13:52;;;;;;;;;;;12.00;99.90;;;;;;5037676;28;19920;-71
2022/11/09 03:16:18;;;;;;;;;;;12.20;99.90;;;;;;5038466;28;20405;-71
2022/11/09 03:18:43;;;;;;;;;;;12.20;99.90;;;;;;5072686;28;19928;-71
2022/11/09 03:21:09;;;;;;;;;;;12.30;99.90;;;;;;5054651;28;20471;-71
2022/11/09 03:23:34;;;;;;;;;;;12.20;99.90;;;;;;5072239;28;19920;-71
2022/11/09 03:26:00;;;;;;;;;;;12.10;99.90;;;;;;5053732;28;19924;-72
2022/11/09 03:28:25;;;;;;;;;;;12.70;99.90;;;;;;5054379;28;19967;-72
2022/11/09 03:30:51;;;;;;;;;;;12.30;99.90;;;;;;5049080;28;20018;-72
2022/11/09 03:33:16;;;;;;;;;;;12.00;99.90;;;;;;5092328;28;19974;-72
2022/11/09 03:35:42;;;;;;;;;;;12.10;99.90;;;;;;5091737;28;19920;-72
2022/11/09 03:38:08;;;;;;;;;;;12.00;99.90;;;;;;5057748;28;19920;-72
2022/11/09 03:40:33;;;;;;;;;;;12.20;99.90;;;;;;5076463;28;19935;-72
2022/11/09 03:42:59;;;;;;;;;;;12.30;99.90;;;;;;5071753;28;19920;-72
2022/11/09 03:45:26;;;;;;;;;;;11.90;99.90;;;;;;5088094;28;19920;-71
2022/11/09 03:47:55;;;;;;;;;;;12.20;99.90;;;;;;5074733;28;20293;-71
2022/11/09 03:50:21;;;;;;;;;;;12.10;99.90;;;;;;5074172;28;20409;-71
2022/11/09 03:52:47;;;;;;;;;;;12.00;99.90;;;;;;5074254;28;20015;-71
2022/11/09 03:55:13;;;;;;;;;;;12.20;99.90;;;;;;5073435;28;19920;-71
2022/11/09 03:57:38;;;;;;;;;;;12.20;99.90;;;;;;5073561;28;20385;-71
2022/11/09 04:00:05;;;;;;;;;;;12.10;99.90;;;;;;5066473;28;19932;-71
2022/11/09 04:02:31;;;;;;;;;;;12.10;99.90;;;;;;5053963;28;19924;-71
2022/11/09 04:04:56;;;;;;;;;;;11.90;99.90;;;;;;5053490;28;19921;-71
2022/11/09 04:07:22;;;;;;;;;;;12.10;99.90;;;;;;5053904;28;19928;-71
2022/11/09 04:09:47;;;;;;;;;;;12.20;99.90;;;;;;5053980;28;19972;-71
2022/11/09 04:12:13;;;;;;;;;;;12.30;99.90;;;;;;5071800;28;19928;-71
2022/11/09 04:14:38;;;;;;;;;;;12.00;99.90;;;;;;5053463;28;19921;-71
2022/11/09 04:17:04;;;;;;;;;;;12.20;99.90;;;;;;5086446;28;19926;-71
2022/11/09 04:19:29;;;;;;;;;;;12.20;99.90;;;;;;5074276;28;20374;-71
2022/11/09 04:21:55;;;;;;;;;;;12.20;99.90;;;;;;5073811;28;19959;-71
2022/11/09 04:24:20;;;;;;;;;;;12.00;99.90;;;;;;5073178;28;20027;-71
2022/11/09 04:26:46;;;;;;;;;;;12.20;99.90;;;;;;5091911;28;19924;-71
2022/11/09 04:29:12;;;;;;;;;;;12.20;99.90;;;;;;5073816;28;19920;-71
2022/11/09 04:31:37;;;;;;;;;;;;;;;;;;5073522;28;19921;-71
2022/11/09 04:34:03;;;;;;;;;;;12.30;99.90;;;;;;5071190;28;20301;-71
2022/11/09 04:36:28;;;;;;;;;;;12.20;99.90;;;;;;5074208;28;19927;-71
2022/11/09 04:38:54;;;;;;;;;;;12.00;99.90;;;;;;5056725;28;19926;-71
2022/11/09 04:41:19;;;;;;;;;;;12.00;99.90;;;;;;5073638;28;19931;-71
2022/11/09 04:43:45;;;;;;;;;;;;;;;;;;5073168;28;19955;-71
2022/11/09 04:46:11;;;;;;;;;;;12.00;99.90;;;;;;5073225;28;20321;-72
2022/11/09 04:48:36;;;;;;;;;;;12.30;99.90;;;;;;5073360;28;20416;-71
2022/11/09 04:51:03;;;;;;;;;;;12.10;99.90;;;;;;5056976;28;20305;-72
2022/11/09 04:53:29;;;;;;;;;;;12.10;99.90;;;;;;5056918;28;19928;-71
2022/11/09 04:55:55;;;;;;;;;;;12.20;99.90;;;;;;5090873;28;20400;-72
2022/11/09 04:58:20;;;;;;;;;;;12.40;99.90;;;;;;5073639;28;19927;-72
2022/11/09 05:00:46;;;;;;;;;;;12.10;99.90;;;;;;5073388;28;19924;-71
2022/11/09 05:03:11;;;;;;;;;;;12.00;99.90;;;;;;5073584;28;20419;-72
2022/11/09 05:05:37;;;;;;;;;;;12.10;99.90;;;;;;5090775;28;20003;-72
2022/11/09 05:08:03;;;;;;;;;;;12.10;99.90;;;;;;5057855;28;20423;-72
2022/11/09 05:10:29;;;;;;;;;;;12.30;99.90;;;;;;5073905;28;19920;-71
2022/11/09 05:12:58;;;;;;;;;;;12.30;99.90;;;;;;5057312;28;19920;-71
2022/11/09 05:15:24;;;;;;;;;;;12.20;99.90;;;;;;5056392;28;20541;-72
2022/11/09 05:17:50;;;;;;;;;;;12.30;99.90;;;;;;5075089;28;19920;-71
2022/11/09 05:20:15;;;;;;;;;;;12.10;99.90;;;;;;5056760;28;19994;-71
2022/11/09 05:25:25;;;;;;;;;;;12.30;99.90;;;;;;5055935;28;20321;-71
2022/11/09 05:27:51;;;;;;;;;;;12.20;99.90;;;;;;5056727;28;19932;-72
2022/11/09 05:30:16;;;;;;;;;;;12.20;99.90;;;;;;5039878;28;19921;-71
2022/11/09 05:32:42;;;;;;;;;;;12.20;99.90;;;;;;5056761;28;19920;-71
2022/11/09 05:35:08;;;;;;;;;;;12.30;99.90;;;;;;5055709;28;19990;-71
2022/11/09 05:37:33;;;;;;;;;;;12.20;99.90;;;;;;5074252;28;19920;-71
2022/11/09 05:39:59;;;;;;;;;;;12.10;99.90;;;;;;5074601;28;20271;-72
2022/11/09 05:42:24;;;;;;;;;;;12.20;99.90;;;;;;5056456;28;19920;-71
2022/11/09 05:44:50;;;;;;;;;;;12.00;99.90;;;;;;5074629;28;20180;-72
2022/11/09 05:47:15;;;;;;;;;;;12.10;99.90;;;;;;5056488;28;20444;-71
2022/11/09 05:49:41;;;;;;;;;;;11.90;99.90;;;;;;5056622;28;19924;-72
2022/11/09 05:52:06;;;;;;;;;;;12.10;99.90;;;;;;5056492;28;19924;-71
2022/11/09 05:54:32;;;;;;;;;;;12.20;99.90;;;;;;5073291;28;19968;-71
2022/11/09 05:56:57;;;;;;;;;;;11.90;99.90;;;;;;5077454;28;20449;-72
2022/11/09 05:59:23;;;;;;;;;;;11.90;99.90;;;;;;5059512;28;19924;-72
2022/11/09 06:01:48;;;;;;;;;;;12.10;99.90;;;;;;5059354;28;19924;-72
2022/11/09 06:04:14;;;;;;;;;;;11.90;99.90;;;;;;5058323;28;19920;-72
2022/11/09 06:06:39;;;;;;;;;;;11.90;99.90;;;;;;5074287;28;20058;-72
2022/11/09 06:09:05;;;;;;;;;;;12.20;99.90;;;;;;5062023;28;19927;-72
2022/11/09 06:11:30;;;;;;;;;;;11.90;99.90;;;;;;5056288;28;19931;-72
2022/11/09 06:13:56;;;;;;;;;;;11.90;99.90;;;;;;5073032;28;19968;-72
2022/11/09 06:16:21;;;;;;;;;;;11.90;99.90;;;;;;5055973;28;19920;-72
2022/11/09 06:18:46;;;;;;;;;;;11.70;99.90;;;;;;5055586;28;19960;-72
2022/11/09 06:21:12;;;;;;;;;;;11.80;99.90;;;;;;5064555;28;19973;-72
2022/11/09 06:23:38;;;;;;;;;;;11.70;99.90;;;;;;5076655;28;19995;-72
2022/11/09 06:26:10;;;;;;;;;;;11.70;99.90;;;;;;5075123;28;19966;-72
2022/11/09 06:28:36;;;;;;;;;;;12.00;99.90;;;;;;5064182;28;19927;-72
2022/11/09 06:31:03;;;;;;;;;;;11.80;99.90;;;;;;5073498;28;19920;-72
2022/11/09 06:33:29;;;;;;;;;;;11.70;99.90;;;;;;5055512;28;19920;-72
2022/11/09 06:35:55;;;;;;;;;;;11.90;99.90;;;;;;5072308;28;19920;-71
2022/11/09 06:38:21;;;;;;;;;;;11.60;99.90;;;;;;5058737;28;19990;-72
2022/11/09 06:40:50;;;;;;;;;;;11.90;99.90;;;;;;5058638;28;20390;-72
2022/11/09 06:43:16;;;;;;;;;;;;;;;;;;5093493;28;19920;-72
2022/11/09 06:45:41;;;;;;;;;;;11.80;99.90;;;;;;5091878;28;20415;-72
2022/11/09 06:48:08;;;;;;;;;;;11.90;99.90;;;;;;5074899;28;19920;-72
2022/11/09 06:50:34;;;;;;;;;;;11.90;99.90;;;;;;5093169;28;19923;-72
2022/11/09 06:53:01;;;;;;;;;;;11.80;99.90;;;;;;5058487;28;19927;-72
2022/11/09 06:55:27;;;;;;;;;;;11.70;99.90;;;;;;5092696;28;19920;-72
2022/11/09 06:57:52;;;;;;;;;;;11.80;99.90;;;;;;5093334;28;19927;-72
2022/11/09 07:00:18;;;;;;;;;;;11.70;99.90;;;;;;5075967;28;19928;-71
2022/11/09 07:02:44;;;;;;;;;;;11.70;99.90;;;;;;5074614;28;19962;-71
2022/11/09 07:05:09;;;;;;;;;;;11.90;99.90;;;;;;5093086;28;20011;-72
2022/11/09 07:07:35;;;;;;;;;;;11.80;99.90;;;;;;5061035;28;19977;-72
2022/11/09 07:10:00;;;;;;;;;;;11.70;99.90;;;;;;5063495;28;19928;-72
2022/11/09 07:12:26;;;;;;;;;;;11.80;99.90;;;;;;5085426;28;20297;-72
2022/11/09 07:14:51;;;;;;;;;;;;;;;;;;5069735;28;19924;-72
2022/11/09 07:17:17;;;;;;;;;;;11.70;99.90;;;;;;5065587;28;20404;-72
2022/11/09 07:19:42;;;;;;;;;;;11.70;99.90;;;;;;5067599;28;20041;-72
2022/11/09 07:22:08;;;;;;;;;;;11.80;99.90;;;;;;5082956;28;19928;-72
2022/11/09 07:24:33;;;;;;;;;;;11.90;99.90;;;;;;5082241;28;20463;-72
2022/11/09 07:26:59;;;;;;;;;;;11.70;99.90;;;;;;5070415;28;19920;-71
2022/11/09 07:29:24;;;;;;;;;;;11.60;99.90;;;;;;5079015;28;19927;-71
2022/11/09 07:31:50;;;;;;;;;;;;;;;;;;5052579;28;19924;-71
2022/11/09 07:34:16;;;;;;;;;;;;;;;;;;5062976;28;19927;-71
2022/11/09 07:36:42;;;;;;;;;;;11.80;99.90;;;;;;5088874;28;20015;-71
2022/11/09 07:39:07;;;;;;;;;;;11.80;99.90;;;;;;5091353;28;19928;-71
2022/11/09 07:41:32;;;;;;;;;;;11.80;99.90;;;;;;5090751;28;19924;-72
2022/11/09 07:43:58;;;;;;;;;;;11.90;99.90;;;;;;5089285;28;19972;-72
2022/11/09 07:46:24;;;;;;;;;;;12.00;99.90;;;;;;5086695;28;19920;-72
2022/11/09 07:48:49;;;;;;;;;;;11.80;99.90;;;;;;5091239;28;19920;-72
2022/11/09 07:51:14;;;;;;;;;;;11.90;99.90;;;;;;5066682;28;20363;-72
2022/11/09 07:53:40;;;;;;;;;;;;;;;;;;5069476;28;19924;-72
2022/11/09 07:56:06;;;;;;;;;;;11.80;99.90;;;;;;5069033;28;19920;-72
2022/11/09 07:58:33;;;;;;;;;;;12.10;99.90;;;;;;5060120;28;19970;-71
2022/11/09 08:00:58;;;;;;;;;;;12.10;99.90;;;;;;5091559;28;20014;-72
2022/11/09 08:03:24;;;;;;;;;;;12.00;99.90;;;;;;5090646;28;20453;-71
2022/11/09 08:05:49;;;;;;;;;;;12.00;99.90;;;;;;5048718;28;19920;-72
2022/11/09 08:08:15;;;;;;;;;;;11.90;99.90;;;;;;5075297;28;19920;-71
2022/11/09 08:10:41;;;;;;;;;;;;;;;;;;5068931;28;19974;-71
2022/11/09 08:13:11;;;;;;;;;;;12.10;99.90;;;;;;5088075;28;19924;-71
2022/11/09 08:15:37;;;;;;;;;;;12.30;99.90;;;;;;5071980;28;20041;-71
2022/11/09 08:18:04;;;;;;;;;;;12.00;99.90;;;;;;5058365;28;20454;-71
2022/11/09 08:20:30;;;;;;;;;;;12.10;99.90;;;;;;5071625;28;19924;-71
2022/11/09 08:22:56;;;;;;;;;;;12.30;99.90;;;;;;5064870;28;20613;-71
2022/11/09 08:25:21;;;;;;;;;;;12.30;99.90;;;;;;5074055;28;19974;-70
2022/11/09 08:27:47;;;;;;;;;;;12.30;99.90;;;;;;5041339;28;20003;-70
2022/11/09 08:30:13;;;;;;;;;;;12.30;99.90;;;;;;5073400;28;20343;-70
2022/11/09 08:32:39;;;;;;;;;;;12.50;99.90;;;;;;5091158;28;19924;-71
2022/11/09 08:35:05;;;;;;;;;;;12.30;99.90;;;;;;5062531;28;19945;-70
2022/11/09 08:37:32;;;;;;;;;;;12.30;99.90;;;;;;5068138;28;19924;-71
2022/11/09 08:39:58;;;;;;;;;;;12.40;99.90;;;;;;5067209;28;19921;-71
2022/11/09 08:42:23;;;;;;;;;;;12.50;99.90;;;;;;5039300;28;19973;-71
2022/11/09 08:44:49;;;;;;;;;;;12.70;99.90;;;;;;5056896;28;19927;-71
2022/11/09 08:47:14;;;;;;;;;;;12.70;99.90;;;;;;5094598;28;19973;-71
2022/11/09 08:49:42;;;;;;;;;;;12.90;99.90;;;;;;5094049;28;19920;-71
2022/11/09 08:52:08;;;;;;;;;;;12.70;99.90;;;;;;5061341;28;20397;-71
2022/11/09 08:54:34;;;;;;;;;;;12.70;99.90;;;;;;5054898;28;19931;-70
2022/11/09 08:57:00;;;;;;;;;;;12.90;99.90;;;;;;5060827;28;20186;-71
2022/11/09 08:59:26;;;;;;;;;;;;;;;;;;5069954;28;19927;-71
2022/11/09 09:01:51;;;;;;;;;;;12.80;99.90;;;;;;5064766;28;20483;-71
2022/11/09 09:04:17;;;;;;;;;;;;;;;;;;5072569;28;20019;-70
2022/11/09 09:06:42;;;;;;;;;;;13.10;99.90;;;;;;5072184;28;19920;-71
2022/11/09 09:09:08;;;;;;;;;;;13.00;99.90;;;;;;5093800;28;19973;-71
2022/11/09 09:11:34;;;;;;;;;;;13.20;99.90;;;;;;5075233;28;19920;-71
2022/11/09 09:13:59;;;;;;;;;;;13.40;99.90;;;;;;5090052;28;19920;-72
2022/11/09 09:16:24;;;;;;;;;;;13.00;99.90;;;;;;5074958;28;19924;-72
2022/11/09 09:18:50;;;;;;;;;;;13.30;99.90;;;;;;5073192;28;20395;-73
2022/11/09 09:21:15;;;;;;;;;;;13.20;99.90;;;;;;5073737;28;19963;-72
2022/11/09 09:23:41;;;;;;;;;;;13.40;99.90;;;;;;5091127;28;19927;-73
2022/11/09 09:26:07;;;;;;;;;;;13.60;99.90;;;;;;5074117;28;19931;-72
2022/11/09 09:28:32;;;;;;;;;;;13.50;99.90;;;;;;5056176;28;20330;-71
2022/11/09 09:30:58;;;;;;;;;;;13.30;99.90;;;;;;5057303;28;19924;-71
2022/11/09 09:33:24;;;;;;;;;;;13.50;99.90;;;;;;5072352;28;19920;-71
2022/11/09 09:35:50;;;;;;;;;;;13.50;99.90;;;;;;5067281;28;19935;-71
2022/11/09 09:38:16;;;;;;;;;;;13.70;99.90;;;;;;5091031;28;19931;-72
2022/11/09 09:40:47;;;;;;;;;;;13.60;99.90;;;;;;5069499;28;19924;-72
2022/11/09 09:43:14;;;;;;;;;;;13.50;99.90;;;;;;5075325;28;19927;-72
2022/11/09 09:45:45;;;;;;;;;;;14.10;99.90;;;;;;5068479;28;19947;-72
2022/11/09 09:48:17;;;;;;;;;;;13.60;99.90;;;;;;5060775;28;19932;-72
2022/11/09 09:50:45;;;;;;;;;;;13.70;99.90;;;;;;5089401;28;20270;-72
2022/11/09 09:53:14;;;;;;;;;;;13.70;99.90;;;;;;5091784;28;19965;-72
2022/11/09 09:55:41;;;;;;;;;;;13.60;99.90;;;;;;5064722;28;19920;-72
2022/11/09 09:58:10;;;;;;;;;;;13.70;99.90;;;;;;5071760;28;19974;-72
2022/11/09 10:00:37;;;;;;;;;;;13.60;99.90;;;;;;5078481;28;19932;-72
2022/11/09 10:03:03;;;;;;;;;;;13.80;99.90;;;;;;5093322;28;19955;-72
2022/11/09 10:05:38;;;;;;;;;;;14.00;99.90;;;;;;5092645;28;19959;-72
2022/11/09 10:08:18;;;;;;;;;;;13.70;99.90;;;;;;5067550;28;20003;-72
2022/11/09 10:10:49;;;;;;;;;;;13.70;99.90;;;;;;5054631;28;19936;-72
2022/11/09 10:13:40;;;;;;;;;;;13.60;99.90;;;;;;5067383;28;20340;-73
2022/11/09 10:16:08;;;;;;;;;;;13.80;99.90;;;;;;5092710;28;19924;-73
2022/11/09 10:18:43;;;;;;;;;;;13.80;99.90;;;;;;5075108;28;19920;-72
2022/11/09 10:21:18;;;;;;;;;;;13.90;99.90;;;;;;5055590;28;19924;-72
2022/11/09 10:23:49;;;;;;;;;;;14.00;99.90;;;;;;5091465;28;19920;-73
2022/11/09 10:26:18;;;;;;;;;;;13.90;99.90;;;;;;5079923;28;19924;-72
2022/11/09 10:28:45;;;;;;;;;;;13.80;99.90;;;;;;5074598;28;19927;-72
2022/11/09 10:31:14;;;;;;;;;;;13.70;99.90;;;;;;5092281;28;19924;-72
2022/11/09 10:33:39;;;;;;;;;;;14.00;99.90;;;;;;5084763;28;19946;-72
2022/11/09 10:36:16;;;;;;;;;;;13.90;99.90;;;;;;5070550;28;19924;-72
2022/11/09 10:38:44;;;;;;;;;;;14.00;99.90;;;;;;5072640;28;20446;-72
2022/11/09 10:41:10;;;;;;;;;;;14.50;99.90;;;;;;5071774;28;19997;-72
2022/11/09 10:43:35;;;;;;;;;;;13.90;99.90;;;;;;5092479;28;19920;-72
2022/11/09 10:46:05;;;;;;;;;;;14.00;99.90;;;;;;5073749;28;19920;-72
2022/11/09 10:48:32;;;;;;;;;;;13.90;99.90;;;;;;5074804;28;19924;-72
2022/11/09 10:50:58;;;;;;;;;;;13.90;99.90;;;;;;5074768;28;19920;-72
2022/11/09 10:53:25;;;;;;;;;;;13.80;99.90;;;;;;5068380;28;19921;-72
2022/11/09 10:55:50;;;;;;;;;;;13.80;99.90;;;;;;5053429;28;20439;-72
2022/11/09 10:58:23;;;;;;;;;;;13.80;99.90;;;;;;5067101;28;19928;-72
2022/11/09 11:00:57;;;;;;;;;;;13.80;99.90;;;;;;5075116;28;19980;-72
2022/11/09 11:03:23;;;;;;;;;;;13.80;99.90;;;;;;5090029;28;19920;-72
2022/11/09 11:05:59;;;;;;;;;;;13.80;99.90;;;;;;5063698;28;19981;-72
2022/11/09 11:08:30;;;;;;;;;;;13.80;99.90;;;;;;5092057;28;19927;-72
2022/11/09 11:11:14;;;;;;;;;;;13.80;99.90;;;;;;5086788;28;20003;-72
2022/11/09 11:13:39;;;;;;;;;;;13.90;99.90;;;;;;5053810;28;19921;-72
2022/11/09 11:16:25;;;;;;;;;;;13.60;99.90;;;;;;5057155;28;20019;-72
2022/11/09 11:18:50;;;;;;;;;;;13.90;99.90;;;;;;5067292;28;19932;-72
2022/11/09 11:21:17;;;;;;;;;;;13.80;99.90;;;;;;5054106;28;19924;-72
2022/11/09 11:23:43;;;;;;;;;;;14.00;99.90;;;;;;5053481;28;19932;-72
2022/11/09 11:26:18;;;;;;;;;;;13.80;99.90;;;;;;5068900;28;19969;-72
2022/11/09 11:28:52;;;;;;;;;;;13.90;99.90;;;;;;5073712;28;19920;-72
2022/11/09 11:31:18;;;;;;;;;;;14.00;99.90;;;;;;5073744;28;20011;-72
2022/11/09 11:33:44;;;;;;;;;;;14.20;99.90;;;;;;5073848;28;19920;-72
2022/11/09 11:36:25;;;;;;;;;;;13.70;99.90;;;;;;5090346;28;19926;-72
2022/11/09 11:38:50;;;;;;;;;;;;;;;;;;5068576;28;19943;-72
2022/11/09 11:41:26;;;;;;;;;;;13.90;99.90;;;;;;5089227;28;20385;-72
2022/11/09 11:43:57;;;;;;;;;;;13.90;99.90;;;;;;5054139;28;19920;-72
2022/11/09 11:46:33;;;;;;;;;;;13.80;99.90;;;;;;5072216;28;19920;-72
2022/11/09 11:49:01;;;;;;;;;;;13.90;99.90;;;;;;5081242;28;19927;-72
2022/11/09 11:51:36;;;;;;;;;;;14.00;99.90;;;;;;5065456;28;19928;-72
2022/11/09 11:54:10;;;;;;;;;;;13.80;99.90;;;;;;5052381;28;19927;-72
2022/11/09 11:56:58;;;;;;;;;;;13.80;99.90;;;;;;5068932;28;19926;-72
2022/11/09 11:59:47;;;;;;;;;;;13.90;99.90;;;;;;5064309;28;19967;-72
2022/11/09 12:02:42;;;;;;;;;;;14.00;99.90;;;;;;5058687;28;19924;-72
2022/11/09 12:05:27;;;;;;;;;;;14.00;99.90;;;;;;5045674;28;20427;-73
2022/11/09 12:08:15;;;;;;;;;;;13.80;99.90;;;;;;5068260;28;20397;-73
2022/11/09 12:10:44;;;;;;;;;;;13.80;99.90;;;;;;5061678;28;20010;-73
2022/11/09 12:13:24;;;;;;;;;;;13.60;99.90;;;;;;5086271;28;19924;-73
2022/11/09 12:15:50;;;;;;;;;;;13.90;99.90;;;;;;5088146;28;20377;-73
2022/11/09 12:18:15;;;;;;;;;;;13.90;99.90;;;;;;5091434;28;20332;-72
2022/11/09 12:20:53;;;;;;;;;;;14.00;99.90;;;;;;5075401;28;20377;-73
2022/11/09 12:26:13;;;;;;;;;;;14.20;99.90;;;;;;5082751;28;19927;-69
2022/11/09 12:28:42;;;;;;;;;;;14.20;99.90;;;;;;5084827;28;20373;-70
2022/11/09 12:31:17;;;;;;;;;;;14.30;99.90;;;;;;5077317;28;19920;-69
2022/11/09 12:33:53;;;;;;;;;;;14.00;99.90;;;;;;5083266;28;19964;-71
2022/11/09 12:36:26;;;;;;;;;;;13.90;99.90;;;;;;5086647;28;20249;-70
2022/11/09 12:39:04;;;;;;;;;;;14.10;99.90;;;;;;5085123;28;20310;-70
2022/11/09 12:41:32;;;;;;;;;;;14.10;99.90;;;;;;5083295;28;19928;-70
2022/11/09 12:44:16;;;;;;;;;;;13.80;99.90;;;;;;5083110;28;19928;-71
2022/11/09 12:46:47;;;;;;;;;;;13.80;99.90;;;;;;5075856;28;19920;-70
2022/11/09 12:49:21;;;;;;;;;;;13.80;99.90;;;;;;5084236;28;19920;-70
2022/11/09 12:51:47;;;;;;;;;;;13.90;99.90;;;;;;5091572;28;19920;-70
2022/11/09 12:54:12;;;;;;;;;;;13.60;99.90;;;;;;5093315;28;20326;-70
2022/11/09 12:56:50;;;;;;;;;;;14.50;99.90;;;;;;5098544;28;19920;-70
2022/11/09 12:59:21;;;;;;;;;;;13.40;99.90;;;;;;5074848;28;19924;-71
2022/11/09 13:01:53;;;;;;;;;;;13.50;99.90;;;;;;5082694;28;19970;-71
2022/11/09 13:04:19;;;;;;;;;;;13.20;99.90;;;;;;5079014;28;20368;-71
2022/11/09 13:07:04;;;;;;;;;;;13.30;99.90;;;;;;5077509;28;20318;-71
2022/11/09 13:09:29;;;;;;;;;;;13.20;99.90;;;;;;5083386;28;19931;-71
2022/11/09 13:11:55;;;;;;;;;;;13.10;99.90;;;;;;5077691;28;20314;-71
2022/11/09 13:14:20;;;;;;;;;;;12.90;99.90;;;;;;5113460;28;19973;-71
2022/11/09 13:16:54;;;;;;;;;;;12.90;99.90;;;;;;5095212;28;19955;-70
2022/11/09 13:19:36;;;;;;;;;;;13.00;99.90;;;;;;5094861;28;19942;-70
2022/11/09 13:22:11;;;;;;;;;;;13.00;99.90;;;;;;5099171;28;19923;-69
2022/11/09 13:24:50;;;;;;;;;;;13.20;99.90;;;;;;5087962;28;19920;-70
2022/11/09 13:27:34;;;;;;;;;;;13.00;99.90;;;;;;5103667;28;19924;-70
2022/11/09 13:30:00;;;;;;;;;;;13.10;99.90;;;;;;5106357;28;20386;-70
2022/11/09 13:32:25;;;;;;;;;;;14.00;99.90;;;;;;5086177;28;19920;-70
2022/11/09 13:34:55;;;;;;;;;;;13.20;99.90;;;;;;5073364;28;20003;-70
2022/11/09 13:37:39;;;;;;;;;;;12.90;99.90;;;;;;5088327;28;19927;-71
2022/11/09 13:40:23;;;;;;;;;;;13.00;99.90;;;;;;5089713;28;19924;-70
2022/11/09 13:43:07;;;;;;;;;;;13.20;99.90;;;;;;5077880;28;19928;-71
2022/11/09 13:45:41;;;;;;;;;;;13.10;99.90;;;;;;5086816;28;19920;-71
2022/11/09 13:48:21;;;;;;;;;;;13.10;99.90;;;;;;5094373;28;19978;-70
2022/11/09 13:50:51;;;;;;;;;;;13.10;99.90;;;;;;5094271;28;19927;-71
2022/11/09 13:53:26;;;;;;;;;;;13.20;99.90;;;;;;5084461;28;20022;-71
2022/11/09 13:55:51;;;;;;;;;;;12.90;99.90;;;;;;5071793;28;19920;-71
2022/11/09 13:58:22;;;;;;;;;;;13.00;99.90;;;;;;5085653;28;19924;-71
2022/11/09 14:00:47;;;;;;;;;;;12.90;99.90;;;;;;5094697;28;19970;-71
2022/11/09 14:03:19;;;;;;;;;;;12.90;99.90;;;;;;5093589;28;19920;-71
2022/11/09 14:05:47;;;;;;;;;;;12.90;99.90;;;;;;5071789;28;20328;-71
2022/11/09 14:08:24;;;;;;;;;;;12.90;99.90;;;;;;5072321;28;19927;-71
2022/11/09 14:11:08;;;;;;;;;;;12.90;99.90;;;;;;5073140;28;19976;-71
2022/11/09 14:13:34;;;;;;;;;;;12.80;99.90;;;;;;5072202;28;19921;-72
2022/11/09 14:16:21;;;;;;;;;;;12.90;99.90;;;;;;5093024;28;19921;-71
2022/11/09 14:19:01;;;;;;;;;;;12.90;99.90;;;;;;5110037;28;19926;-71
2022/11/09 14:21:44;;;;;;;;;;;12.70;99.90;;;;;;5112876;28;19924;-71
2022/11/09 14:24:33;;;;;;;;;;;12.60;99.90;;;;;;5081606;28;19920;-71
2022/11/09 14:27:07;;;;;;;;;;;12.70;99.90;;;;;;5071701;28;20258;-71
2022/11/09 14:29:33;;;;;;;;;;;12.80;99.90;;;;;;5081347;28;19927;-71
2022/11/09 14:32:00;;;;;;;;;;;12.60;99.90;;;;;;5073461;28;19924;-71